createdAt,value
2023-01-04T00:00:26.246Z,18.50
2023-01-04T00:02:58.019Z,17.85
2023-01-04T00:05:31.210Z,21.75
2023-01-04T00:08:02.956Z,17.25
2023-01-04T00:10:35.610Z,22.00
2023-01-04T00:13:07.351Z,17.63
2023-01-04T00:15:39.122Z,18.13
2023-01-04T00:18:10.974Z,20.55
2023-01-04T00:20:44.646Z,20.58
2023-01-04T00:23:19.195Z,20.35
2023-01-04T00:25:50.931Z,21.20
2023-01-04T00:28:22.599Z,18.20
2023-01-04T00:30:54.360Z,18.60
2023-01-04T00:33:26.075Z,19.17
2023-01-04T00:36:06.189Z,16.92
2023-01-04T00:38:38.716Z,19.40
2023-01-04T00:41:23.486Z,19.75
2023-01-04T00:44:06.463Z,19.05
2023-01-04T00:46:39.302Z,15.13
2023-01-04T00:49:12.281Z,18.48
2023-01-04T00:51:43.988Z,15.75
2023-01-04T00:54:16.306Z,17.67
2023-01-04T00:56:48.758Z,17.75
2023-01-04T00:59:22.390Z,17.00
2023-01-04T01:01:54.419Z,16.42
2023-01-04T01:04:27.380Z,19.55
2023-01-04T01:06:59.179Z,19.20
2023-01-04T01:09:30.882Z,19.58
2023-01-04T01:12:02.585Z,16.70
2023-01-04T01:14:34.334Z,20.25
2023-01-04T01:17:06.087Z,21.70
2023-01-04T01:19:37.872Z,19.50
2023-01-04T01:22:09.632Z,21.38
2023-01-04T01:24:41.360Z,19.10
2023-01-04T01:27:13.097Z,17.10
2023-01-04T01:29:44.759Z,19.92
2023-01-04T01:32:16.457Z,20.33
2023-01-04T01:34:48.100Z,16.50
2023-01-04T01:37:19.907Z,16.50
2023-01-04T01:39:54.192Z,18.35
2023-01-04T01:42:25.910Z,16.42
2023-01-04T01:45:00.781Z,20.17
2023-01-04T01:50:24.524Z,19.50
2023-01-04T01:52:59.521Z,19.23
2023-01-04T01:55:33.723Z,15.77
2023-01-04T01:58:08.636Z,17.88
2023-01-04T02:00:40.456Z,19.20
2023-01-04T02:03:19.624Z,17.55
2023-01-04T02:05:54.685Z,18.20
2023-01-04T02:08:27.291Z,16.90
2023-01-04T02:10:59.123Z,17.98
2023-01-04T02:13:52.178Z,18.48
2023-01-04T02:16:39.422Z,17.25
2023-01-04T02:19:25.148Z,15.48
2023-01-04T02:22:08.941Z,17.35
2023-01-04T02:24:59.610Z,18.05
2023-01-04T02:27:48.162Z,19.13
2023-01-04T02:30:30.287Z,17.15
2023-01-04T02:33:01.914Z,17.58
2023-01-04T02:35:51.042Z,17.63
2023-01-04T02:38:25.974Z,18.08
2023-01-04T02:41:09.266Z,16.08
2023-01-04T02:44:07.533Z,15.70
2023-01-04T02:46:58.671Z,16.48
2023-01-04T02:49:48.929Z,16.85
2023-01-04T02:52:23.470Z,22.08
2023-01-04T02:54:57.285Z,17.73
2023-01-04T02:57:51.782Z,17.65
2023-01-04T03:00:57.493Z,17.77
2023-01-04T03:04:06.563Z,17.63
2023-01-04T03:06:47.984Z,18.02
2023-01-04T03:09:27.201Z,18.75
2023-01-04T03:12:27.417Z,20.40
2023-01-04T03:15:20.029Z,17.40
2023-01-04T03:17:59.900Z,17.45
2023-01-04T03:20:32.119Z,16.67
2023-01-04T03:23:28.583Z,16.73
2023-01-04T03:26:25.877Z,17.35
2023-01-04T03:29:21.835Z,17.60
2023-01-04T03:32:17.855Z,17.15
2023-01-04T03:35:10.719Z,17.25
2023-01-04T03:38:25.842Z,17.83
2023-01-04T03:41:21.927Z,18.52
2023-01-04T03:44:31.467Z,16.00
2023-01-04T03:47:30.347Z,17.50
2023-01-04T03:50:19.709Z,14.07
2023-01-04T03:52:53.662Z,16.48
2023-01-04T03:55:29.301Z,16.67
2023-01-04T03:58:00.985Z,15.80
2023-01-04T04:00:33.884Z,19.42
2023-01-04T04:03:07.570Z,13.43
2023-01-04T04:06:01.442Z,16.85
2023-01-04T04:08:33.090Z,16.65
2023-01-04T04:11:23.244Z,14.25
2023-01-04T04:13:54.925Z,14.88
2023-01-04T04:16:28.002Z,13.00
2023-01-04T04:19:04.579Z,13.00
2023-01-04T04:21:39.908Z,14.45
2023-01-04T04:24:18.278Z,14.63
2023-01-04T04:26:50.855Z,12.25
2023-01-04T04:29:24.343Z,14.00
2023-01-04T04:31:56.149Z,12.23
2023-01-04T04:34:27.922Z,12.38
2023-01-04T04:36:59.652Z,15.15
2023-01-04T04:39:31.626Z,14.13
2023-01-04T04:42:03.392Z,13.70
2023-01-04T04:44:35.553Z,16.40
2023-01-04T04:47:07.303Z,12.88
2023-01-04T04:49:39.084Z,12.85
2023-01-04T04:52:10.762Z,13.30
2023-01-04T04:54:42.440Z,13.25
2023-01-04T04:57:14.792Z,13.00
2023-01-04T04:59:47.648Z,11.88
2023-01-04T05:02:19.819Z,12.52
2023-01-04T05:04:54.636Z,15.57
2023-01-04T05:07:26.747Z,12.05
2023-01-04T05:09:58.450Z,12.63
2023-01-04T05:12:53.029Z,11.82
2023-01-04T05:15:31.821Z,12.02
2023-01-04T05:18:05.055Z,10.63
2023-01-04T05:20:37.098Z,8.93
2023-01-04T05:23:11.472Z,11.05
2023-01-04T05:25:46.333Z,10.77
2023-01-04T05:30:50.910Z,11.77
2023-01-04T05:33:32.362Z,11.52
2023-01-04T05:36:04.462Z,10.95
2023-01-04T05:38:36.165Z,12.43
2023-01-04T05:41:28.153Z,11.20
2023-01-04T05:43:59.852Z,14.45
2023-01-04T05:46:31.564Z,11.20
2023-01-04T05:49:03.303Z,11.80
2023-01-04T05:51:35.039Z,13.68
2023-01-04T05:54:06.687Z,11.48
2023-01-04T05:56:38.343Z,12.00
2023-01-04T05:59:10.044Z,10.55
2023-01-04T06:01:43.813Z,12.48
2023-01-04T06:04:15.770Z,13.73
2023-01-04T06:06:47.491Z,10.15
2023-01-04T06:09:19.188Z,13.00
2023-01-04T06:11:50.949Z,13.30
2023-01-04T06:14:22.612Z,12.57
2023-01-04T06:17:01.017Z,11.00
2023-01-04T06:19:35.570Z,8.52
2023-01-04T06:22:08.025Z,8.65
2023-01-04T06:24:39.724Z,11.85
2023-01-04T06:27:11.704Z,8.82
2023-01-04T06:29:45.009Z,9.85
2023-01-04T06:32:17.147Z,11.73
2023-01-04T06:34:48.920Z,9.10
2023-01-04T06:37:20.583Z,12.50
2023-01-04T06:39:52.585Z,12.02
2023-01-04T06:42:43.040Z,12.32
2023-01-04T06:45:16.290Z,11.48
2023-01-04T06:47:48.219Z,11.20
2023-01-04T06:50:20.038Z,9.52
2023-01-04T06:52:51.731Z,10.43
2023-01-04T06:55:23.488Z,11.20
2023-01-04T06:57:59.715Z,9.77
2023-01-04T07:00:34.513Z,10.45
2023-01-04T07:03:15.080Z,9.45
2023-01-04T07:05:50.371Z,13.65
2023-01-04T07:08:22.057Z,10.27
2023-01-04T07:10:53.721Z,11.85
2023-01-04T07:13:29.023Z,9.98
2023-01-04T07:16:00.813Z,9.32
2023-01-04T07:18:32.559Z,9.77
2023-01-04T07:21:04.428Z,10.93
2023-01-04T07:23:36.161Z,8.80
2023-01-04T07:26:07.915Z,10.30
2023-01-04T07:28:58.160Z,9.38
2023-01-04T07:31:29.950Z,10.75
2023-01-04T07:34:01.838Z,10.07
2023-01-04T07:36:33.558Z,11.90
2023-01-04T07:39:05.733Z,8.48
2023-01-04T07:41:38.478Z,7.80
2023-01-04T07:44:11.225Z,9.57
2023-01-04T07:46:43.212Z,7.97
2023-01-04T07:49:18.467Z,9.18
2023-01-04T07:51:50.687Z,8.07
2023-01-04T07:54:24.473Z,9.05
2023-01-04T07:56:56.180Z,8.00
2023-01-04T07:59:27.910Z,10.48
2023-01-04T08:01:59.856Z,12.32
2023-01-04T08:04:35.124Z,8.35
2023-01-04T08:07:07.182Z,8.88
2023-01-04T08:09:41.140Z,8.43
2023-01-04T08:12:12.929Z,9.50
2023-01-04T08:14:44.628Z,7.28
2023-01-04T08:17:16.349Z,8.60
2023-01-04T08:19:48.085Z,7.72
2023-01-04T08:22:21.779Z,7.80
2023-01-04T08:24:53.473Z,11.80
2023-01-04T08:27:25.145Z,6.72
2023-01-04T08:29:56.881Z,9.85
2023-01-04T08:32:28.605Z,8.07
2023-01-04T08:35:00.343Z,11.63
2023-01-04T08:37:32.149Z,8.75
2023-01-04T08:40:04.110Z,10.80
2023-01-04T08:42:35.820Z,9.50
2023-01-04T08:45:09.044Z,7.75
2023-01-04T08:47:40.788Z,8.88
2023-01-04T08:50:13.021Z,9.70
2023-01-04T08:52:45.013Z,8.48
2023-01-04T08:55:21.485Z,8.85
2023-01-04T08:58:00.469Z,7.95
2023-01-04T09:00:32.360Z,8.23
2023-01-04T09:03:05.787Z,10.07
2023-01-04T09:05:37.737Z,9.25
2023-01-04T09:08:09.465Z,10.05
2023-01-04T09:10:41.193Z,8.73
2023-01-04T09:13:12.926Z,12.40
2023-01-04T09:15:47.653Z,9.73
2023-01-04T09:21:23.828Z,7.68
2023-01-04T09:24:31.001Z,10.88
2023-01-04T09:27:04.813Z,9.00
2023-01-04T09:29:39.983Z,9.45
2023-01-04T09:32:16.563Z,8.85
2023-01-04T09:34:48.748Z,7.70
2023-01-04T09:37:20.449Z,8.85
2023-01-04T09:39:52.207Z,8.55
2023-01-04T09:42:37.556Z,9.82
2023-01-04T09:45:24.576Z,9.48
2023-01-04T09:48:06.753Z,8.63
2023-01-04T09:50:58.755Z,11.30
2023-01-04T09:53:40.940Z,8.65
2023-01-04T09:56:30.261Z,10.25
2023-01-04T09:59:07.092Z,11.48
2023-01-04T10:01:46.610Z,8.48
2023-01-04T10:04:36.291Z,8.63
2023-01-04T10:07:18.404Z,7.82
2023-01-04T10:09:50.197Z,8.40
2023-01-04T10:12:36.634Z,10.02
2023-01-04T10:15:28.622Z,21.90
2023-01-04T10:24:06.942Z,10.65
2023-01-04T10:26:46.668Z,10.30
2023-01-04T10:29:30.626Z,10.25
2023-01-04T10:32:22.524Z,12.15
2023-01-04T10:34:54.556Z,9.98
2023-01-04T10:37:33.758Z,13.43
2023-01-04T10:40:13.861Z,12.43
2023-01-04T10:42:51.313Z,8.77
2023-01-04T10:45:33.896Z,11.32
2023-01-04T10:48:20.590Z,12.10
2023-01-04T10:51:08.935Z,10.63
2023-01-04T10:53:46.735Z,9.35
2023-01-04T10:56:29.263Z,8.77
2023-01-04T10:59:36.888Z,9.50
2023-01-04T11:02:27.129Z,10.00
2023-01-04T11:05:27.969Z,7.35
2023-01-04T11:08:24.216Z,9.75
2023-01-04T11:11:00.620Z,9.55
2023-01-04T11:13:32.593Z,11.10
2023-01-04T11:16:05.513Z,9.45
2023-01-04T11:18:40.951Z,10.18
2023-01-04T11:21:15.011Z,10.75
2023-01-04T11:23:46.740Z,9.77
2023-01-04T11:26:22.202Z,10.70
2023-01-04T11:28:58.795Z,9.82
2023-01-04T11:31:33.440Z,10.52
2023-01-04T11:34:08.235Z,13.43
2023-01-04T11:36:43.070Z,11.15
2023-01-04T11:39:19.584Z,9.15
2023-01-04T11:42:07.407Z,7.35
2023-01-04T11:44:39.091Z,8.30
2023-01-04T11:47:29.881Z,12.52
2023-01-04T11:50:06.385Z,9.18
2023-01-04T11:52:38.745Z,10.20
2023-01-04T11:55:24.385Z,7.85
2023-01-04T11:58:16.954Z,7.57
2023-01-04T12:00:52.981Z,7.80
2023-01-04T12:03:30.795Z,7.68
2023-01-04T12:06:13.907Z,7.63
2023-01-04T12:08:46.495Z,9.68
2023-01-04T12:11:26.030Z,10.65
2023-01-04T12:14:00.980Z,10.18
2023-01-04T12:16:44.913Z,8.05
2023-01-04T12:19:19.013Z,8.45
2023-01-04T12:21:57.167Z,6.00
2023-01-04T12:24:31.878Z,8.70
2023-01-04T12:29:52.373Z,9.25
2023-01-04T12:32:27.090Z,10.93
2023-01-04T12:37:46.116Z,6.78
2023-01-04T12:40:45.578Z,6.90
2023-01-04T12:43:17.427Z,5.03
2023-01-04T12:46:46.560Z,5.68
2023-01-04T12:49:30.388Z,7.00
2023-01-04T12:55:03.109Z,4.93
2023-01-04T12:57:38.007Z,5.00
2023-01-04T13:00:13.763Z,5.95
2023-01-04T13:02:52.692Z,5.18
2023-01-04T13:08:33.128Z,5.78
2023-01-04T13:11:07.312Z,4.03
2023-01-04T13:13:52.697Z,6.45
2023-01-04T13:16:48.113Z,9.27
2023-01-04T13:21:58.487Z,5.40
2023-01-04T13:24:33.076Z,4.88
2023-01-04T13:27:19.031Z,4.55
2023-01-04T13:29:51.908Z,5.97
2023-01-04T13:32:46.946Z,6.13
2023-01-04T13:35:25.851Z,6.53
2023-01-04T13:37:57.646Z,7.15
2023-01-04T13:40:34.480Z,5.32
2023-01-04T13:43:16.829Z,6.25
2023-01-04T13:46:05.871Z,4.63
2023-01-04T13:48:41.575Z,4.78
2023-01-04T13:51:38.308Z,4.85
2023-01-04T13:54:20.531Z,5.22
2023-01-04T13:56:55.810Z,7.78
2023-01-04T13:59:27.837Z,4.70
2023-01-04T14:01:59.681Z,5.40
2023-01-04T14:04:33.774Z,6.00
2023-01-04T14:07:05.574Z,4.63
2023-01-04T14:09:46.935Z,5.05
2023-01-04T14:12:23.419Z,6.72
2023-01-04T14:14:58.780Z,4.43
2023-01-04T14:17:35.902Z,5.18
2023-01-04T14:20:13.393Z,6.32
2023-01-04T14:22:45.125Z,6.60
2023-01-04T14:25:38.487Z,6.15
2023-01-04T14:28:22.455Z,6.22
2023-01-04T14:30:54.241Z,5.22
2023-01-04T14:33:39.301Z,5.65
2023-01-04T14:36:18.389Z,6.15
2023-01-04T14:38:58.378Z,9.65
2023-01-04T14:41:34.305Z,4.82
2023-01-04T14:44:16.047Z,5.10
2023-01-04T14:46:50.169Z,4.72
2023-01-04T14:49:22.956Z,5.85
2023-01-04T14:51:57.407Z,6.40
2023-01-04T14:54:31.867Z,5.35
2023-01-04T14:57:03.700Z,8.45
2023-01-04T14:59:35.424Z,6.38
2023-01-04T15:02:10.439Z,6.25
2023-01-04T15:04:42.264Z,4.68
2023-01-04T15:07:35.434Z,5.57
2023-01-04T15:10:26.506Z,5.95
2023-01-04T15:13:00.648Z,4.80
2023-01-04T15:15:35.329Z,4.60
2023-01-04T15:18:07.393Z,5.22
2023-01-04T15:20:40.499Z,5.85
2023-01-04T15:23:12.356Z,5.13
2023-01-04T15:25:44.607Z,5.00
2023-01-04T15:30:53.909Z,5.17
2023-01-04T15:33:32.113Z,4.55
2023-01-04T15:36:11.001Z,5.75
2023-01-04T15:38:42.894Z,5.97
2023-01-04T15:41:36.419Z,9.32
2023-01-04T15:44:11.940Z,6.45
2023-01-04T15:46:43.769Z,4.88
2023-01-04T15:49:17.799Z,6.68
2023-01-04T15:51:49.705Z,6.88
2023-01-04T15:54:21.944Z,5.63
2023-01-04T15:56:55.551Z,4.00
2023-01-04T15:59:27.251Z,5.53
2023-01-04T16:01:59.134Z,4.68
2023-01-04T16:04:30.948Z,6.60
2023-01-04T16:07:03.711Z,6.03
2023-01-04T16:09:36.982Z,4.95
2023-01-04T16:12:27.538Z,6.93
2023-01-04T16:14:59.282Z,4.90
2023-01-04T16:17:30.982Z,4.95
2023-01-04T16:20:02.937Z,4.85
2023-01-04T16:22:35.023Z,4.70
2023-01-04T16:25:10.841Z,5.50
2023-01-04T16:27:44.061Z,4.72
2023-01-04T16:30:15.872Z,5.03
2023-01-04T16:32:50.882Z,5.65
2023-01-04T16:35:22.631Z,4.22
2023-01-04T16:37:54.462Z,4.25
2023-01-04T16:40:26.152Z,6.38
2023-01-04T16:42:57.914Z,4.28
2023-01-04T16:45:29.669Z,5.40
2023-01-04T16:48:01.391Z,4.25
2023-01-04T16:50:33.144Z,7.03
2023-01-04T16:53:04.854Z,8.75
2023-01-04T16:55:36.562Z,4.18
2023-01-04T16:58:08.311Z,5.60
2023-01-04T17:00:41.107Z,6.22
2023-01-04T17:03:12.912Z,4.78
2023-01-04T17:05:44.679Z,3.92
2023-01-04T17:08:17.258Z,4.78
2023-01-04T17:10:51.355Z,4.55
2023-01-04T17:13:23.141Z,5.43
2023-01-04T17:15:59.185Z,4.88
2023-01-04T17:18:36.746Z,4.75
2023-01-04T17:21:33.068Z,5.40
2023-01-04T17:26:35.803Z,3.75
2023-01-04T17:29:08.124Z,3.72
2023-01-04T17:31:41.800Z,5.32
2023-01-04T17:34:22.477Z,6.33
2023-01-04T17:36:54.790Z,5.20
2023-01-04T17:39:26.979Z,3.53
2023-01-04T17:41:58.731Z,3.60
2023-01-04T17:44:30.609Z,5.97
2023-01-04T17:47:02.399Z,3.97
2023-01-04T17:49:34.132Z,3.05
2023-01-04T17:52:08.636Z,3.90
2023-01-04T17:54:43.801Z,3.85
2023-01-04T17:59:47.065Z,3.15
2023-01-04T18:02:19.353Z,3.55
2023-01-04T18:04:52.008Z,8.52
2023-01-04T18:07:25.549Z,3.30
2023-01-04T18:09:57.727Z,4.35
2023-01-04T18:12:32.603Z,3.42
2023-01-04T18:15:06.464Z,3.25
2023-01-04T18:17:38.283Z,3.67
2023-01-04T18:20:12.316Z,3.03
2023-01-04T18:22:44.251Z,3.22
2023-01-04T18:25:16.486Z,3.60
2023-01-04T18:27:48.758Z,2.90
2023-01-04T18:30:20.565Z,3.78
2023-01-04T18:32:52.304Z,2.85
2023-01-04T18:35:24.016Z,2.33
2023-01-04T18:37:55.885Z,3.28
2023-01-04T18:40:27.964Z,4.40
2023-01-04T18:43:00.883Z,2.45
2023-01-04T18:45:32.860Z,3.90
2023-01-04T18:48:04.995Z,2.85
2023-01-04T18:50:36.814Z,2.92
2023-01-04T18:53:08.649Z,3.03
2023-01-04T18:55:40.469Z,3.25
2023-01-04T18:58:12.256Z,3.85
2023-01-04T19:00:43.983Z,2.80
2023-01-04T19:03:18.566Z,2.90
2023-01-04T19:05:50.520Z,2.42
2023-01-04T19:08:22.781Z,2.50
2023-01-04T19:10:54.491Z,2.92
2023-01-04T19:13:26.176Z,2.92
2023-01-04T19:15:58.569Z,2.15
2023-01-04T19:18:30.414Z,3.00
2023-01-04T19:21:03.075Z,4.03
2023-01-04T19:23:37.289Z,2.47
2023-01-04T19:26:09.708Z,3.38
2023-01-04T19:28:41.483Z,2.75
2023-01-04T19:31:14.554Z,3.15
2023-01-04T19:33:46.468Z,2.55
2023-01-04T19:36:18.922Z,2.83
2023-01-04T19:38:51.126Z,4.95
2023-01-04T19:41:33.601Z,3.38
2023-01-04T19:44:11.469Z,3.15
2023-01-04T19:46:43.200Z,3.15
2023-01-04T19:49:15.731Z,2.78
2023-01-04T19:51:48.949Z,2.40
2023-01-04T19:54:25.032Z,3.10
2023-01-04T19:56:57.636Z,2.95
2023-01-04T19:59:29.343Z,3.35
2023-01-04T20:02:01.188Z,3.28
2023-01-04T20:04:33.780Z,2.70
2023-01-04T20:07:05.564Z,3.72
2023-01-04T20:09:37.467Z,2.80
2023-01-04T20:12:09.178Z,3.70
2023-01-04T20:14:40.885Z,3.13
2023-01-04T20:17:13.737Z,2.17
2023-01-04T20:19:45.546Z,2.88
2023-01-04T20:22:17.491Z,10.82
2023-01-04T20:24:49.238Z,3.13
2023-01-04T20:27:21.612Z,1.85
2023-01-04T20:29:53.300Z,2.08
2023-01-04T20:32:25.182Z,1.63
2023-01-04T20:34:56.911Z,2.55
2023-01-04T20:37:28.608Z,1.98
2023-01-04T20:40:00.305Z,2.65
2023-01-04T20:42:50.877Z,2.85
2023-01-04T20:45:22.601Z,2.33
2023-01-04T20:47:54.364Z,1.92
2023-01-04T20:50:26.123Z,3.10
2023-01-04T20:53:00.733Z,4.05
2023-01-04T20:55:32.561Z,3.65
2023-01-04T20:58:05.313Z,2.13
2023-01-04T21:00:38.387Z,2.13
2023-01-04T21:03:11.326Z,2.35
2023-01-04T21:05:45.228Z,2.83
2023-01-04T21:08:16.971Z,2.63
2023-01-04T21:10:48.669Z,3.15
2023-01-04T21:13:20.451Z,3.50
2023-01-04T21:15:52.207Z,3.90
2023-01-04T21:18:25.638Z,2.10
2023-01-04T21:20:57.433Z,3.25
2023-01-04T21:23:29.153Z,2.15
2023-01-04T21:26:08.374Z,2.78
2023-01-04T21:28:40.129Z,2.00
2023-01-04T21:31:15.712Z,2.58
2023-01-04T21:33:47.757Z,2.38
2023-01-04T21:36:25.196Z,1.48
2023-01-04T21:38:58.811Z,2.65
2023-01-04T21:41:30.510Z,2.22
2023-01-04T21:44:02.217Z,3.00
2023-01-04T21:46:34.419Z,2.65
2023-01-04T21:49:06.365Z,2.47
2023-01-04T21:51:38.445Z,3.70
2023-01-04T21:54:10.188Z,1.35
2023-01-04T21:56:41.925Z,1.88
2023-01-04T21:59:13.699Z,2.15
2023-01-04T22:01:45.549Z,2.03
2023-01-04T22:04:17.779Z,1.98
2023-01-04T22:06:49.474Z,1.95
2023-01-04T22:09:21.367Z,1.38
2023-01-04T22:11:53.163Z,2.35
2023-01-04T22:14:24.856Z,3.20
2023-01-04T22:16:56.606Z,2.08
2023-01-04T22:19:28.544Z,1.83
2023-01-04T22:22:00.492Z,1.80
2023-01-04T22:24:37.477Z,3.60
2023-01-04T22:27:09.844Z,1.90
2023-01-04T22:29:41.489Z,1.67
2023-01-04T22:32:13.263Z,2.17
2023-01-04T22:34:44.957Z,1.70
2023-01-04T22:37:16.657Z,1.10
2023-01-04T22:39:51.172Z,1.45
2023-01-04T22:42:22.890Z,1.92
2023-01-04T22:44:54.592Z,1.65
2023-01-04T22:47:26.290Z,1.15
2023-01-04T22:49:58.023Z,1.40
2023-01-04T22:52:29.799Z,1.42
2023-01-04T22:55:01.529Z,2.25
2023-01-04T22:57:33.268Z,1.52
2023-01-04T23:00:06.430Z,2.53
2023-01-04T23:02:38.148Z,3.42
2023-01-04T23:05:11.563Z,3.05
2023-01-04T23:07:43.376Z,2.20
2023-01-04T23:10:15.066Z,1.55
2023-01-04T23:12:47.012Z,2.25
2023-01-04T23:15:18.682Z,1.83
2023-01-04T23:17:50.481Z,1.55
2023-01-04T23:20:22.172Z,2.30
2023-01-04T23:22:53.936Z,1.48
2023-01-04T23:25:25.778Z,2.80
2023-01-04T23:27:57.572Z,1.42
2023-01-04T23:30:29.276Z,1.13
2023-01-04T23:33:01.056Z,2.28
2023-01-04T23:35:32.779Z,1.20
2023-01-04T23:38:04.654Z,1.60
2023-01-04T23:40:36.360Z,1.20
2023-01-04T23:43:08.119Z,2.30
2023-01-04T23:45:39.844Z,1.73
2023-01-04T23:48:11.537Z,2.05
2023-01-04T23:50:43.185Z,1.10
2023-01-04T23:53:14.864Z,1.40
2023-01-04T23:56:14.364Z,3.03
2023-01-04T23:58:46.405Z,2.85
